Port Mansfield, Texas
Current Conditions -  °F | °C
As of 10:52 AM on Wednesday 26 Nov 2014 (Local Time) from KHRL Reporting Station
Clear Clear  
Wind Chill: 67°   Ceiling: Unl
Heat Index: 67°   Visibility: 10mi
Dew Point: 43°   Wind: 10mph
Humidity: 42%   Direction: 200°SSW
Pressure: 30.31"   Gusts: NA
Location:  26.56°N, 97.43°W
Report Text: KHRL 261652Z 20009KT 10SM CLR 19/06 A3031 RMK AO2 SLP263 T01940061
Loading
Personal Weather Stations






























Interactive Weather Map New forecast layout! Learn more

10-Day Weather Forecast

Advertisements
Track Severe Weather on mobile